createdAt,value
2023-05-01T00:00:48.857Z,611.9231
2023-05-01T00:01:51.788Z,607.2308
2023-05-01T00:02:54.838Z,607.8461
2023-05-01T00:03:58.026Z,604.2308
2023-05-01T00:05:00.796Z,602.8461
2023-05-01T00:06:03.612Z,598.1539
2023-05-01T00:07:06.522Z,594.9231
2023-05-01T00:08:09.463Z,594.4615
2023-05-01T00:09:12.435Z,596.2308
2023-05-01T00:10:15.430Z,598.2308
2023-05-01T00:11:18.349Z,601.0769
2023-05-01T00:12:21.228Z,601.1539
2023-05-01T00:13:24.210Z,597.6923
2023-05-01T00:14:27.107Z,596.5385
2023-05-01T00:15:30.096Z,596.2308
2023-05-01T00:16:33.156Z,596.6154
2023-05-01T00:17:36.039Z,597.3846
2023-05-01T00:18:38.942Z,597.8461
2023-05-01T00:19:41.845Z,600.0769
2023-05-01T00:20:44.823Z,601.1539
2023-05-01T00:21:47.743Z,603.0769
2023-05-01T00:22:50.699Z,602.3846
2023-05-01T00:23:53.609Z,602.3077
2023-05-01T00:24:56.573Z,601.2308
2023-05-01T00:25:59.622Z,600.3077
2023-05-01T00:27:02.459Z,598.6923
2023-05-01T00:28:05.418Z,593.0769
2023-05-01T00:29:08.338Z,586.7692
2023-05-01T00:30:11.294Z,582.0000
2023-05-01T00:31:14.248Z,577.3077
2023-05-01T00:32:17.316Z,572.8461
2023-05-01T00:33:20.110Z,570.4615
2023-05-01T00:34:23.066Z,566.3846
2023-05-01T00:35:26.008Z,564.9231
2023-05-01T00:36:28.948Z,564.1539
2023-05-01T00:37:31.972Z,561.3846
2023-05-01T00:38:34.926Z,560.6154
2023-05-01T00:39:37.848Z,560.1539
2023-05-01T00:40:40.924Z,558.6154
2023-05-01T00:41:43.749Z,559.4615
2023-05-01T00:42:46.696Z,559.8461
2023-05-01T00:43:49.675Z,557.4615
2023-05-01T00:44:52.587Z,556.2308
2023-05-01T00:45:55.539Z,554.6154
2023-05-01T00:46:58.489Z,557.3077
2023-05-01T00:48:01.469Z,557.9231
2023-05-01T00:49:04.350Z,558.4615
2023-05-01T00:50:07.289Z,558.3846
2023-05-01T00:51:10.244Z,557.1539
2023-05-01T00:52:13.209Z,557.6154
2023-05-01T00:53:16.140Z,558.0000
2023-05-01T00:54:19.070Z,556.6923
2023-05-01T00:55:22.020Z,556.5385
2023-05-01T00:56:24.975Z,557.2308
2023-05-01T00:57:27.913Z,555.0769
2023-05-01T00:58:30.851Z,554.9231
2023-05-01T00:59:33.780Z,550.3077
2023-05-01T01:00:36.712Z,549.2308
2023-05-01T01:01:39.676Z,549.0769
2023-05-01T01:02:42.635Z,548.1539
2023-05-01T01:03:45.596Z,548.4615
2023-05-01T01:04:48.626Z,549.6154
2023-05-01T01:05:51.479Z,553.3077
2023-05-01T01:06:54.389Z,551.0000
2023-05-01T01:07:57.318Z,551.4615
2023-05-01T01:09:00.264Z,551.1539
2023-05-01T01:10:03.201Z,550.5385
2023-05-01T01:11:06.134Z,550.6923
2023-05-01T01:12:09.078Z,550.4615
2023-05-01T01:13:12.025Z,550.8461
2023-05-01T01:14:15.097Z,552.0000
2023-05-01T01:15:17.945Z,552.3077
2023-05-01T01:16:20.921Z,554.8461
2023-05-01T01:17:23.813Z,555.4615
2023-05-01T01:18:26.793Z,554.8461
2023-05-01T01:19:29.698Z,556.0769
2023-05-01T01:20:32.632Z,556.9231
2023-05-01T01:21:35.572Z,552.9231
2023-05-01T01:22:38.503Z,547.3077
2023-05-01T01:23:41.444Z,538.9231
2023-05-01T01:24:44.390Z,539.5385
2023-05-01T01:25:47.346Z,535.0000
2023-05-01T01:26:50.335Z,534.0769
2023-05-01T01:27:53.217Z,534.5385
2023-05-01T01:28:56.146Z,535.9231
2023-05-01T01:29:59.130Z,536.3077
2023-05-01T01:31:02.111Z,538.6923
2023-05-01T01:32:04.998Z,540.0000
2023-05-01T01:33:07.983Z,539.0769
2023-05-01T01:34:10.845Z,540.1539
2023-05-01T01:35:13.831Z,540.1539
2023-05-01T01:36:16.756Z,540.5385
2023-05-01T01:37:19.701Z,541.7692
2023-05-01T01:38:22.692Z,541.7692
2023-05-01T01:39:25.728Z,544.6154
2023-05-01T01:40:28.578Z,545.2308
2023-05-01T01:41:31.459Z,540.6923
2023-05-01T01:42:34.404Z,541.3077
2023-05-01T01:43:37.326Z,542.3077
2023-05-01T01:44:40.270Z,541.0769
2023-05-01T01:45:43.279Z,540.6923
2023-05-01T01:46:46.185Z,542.2308
2023-05-01T01:47:49.174Z,542.3846
2023-05-01T01:48:52.047Z,542.6923
2023-05-01T01:49:55.172Z,544.1539
2023-05-01T01:50:57.916Z,544.0769
2023-05-01T01:52:00.872Z,545.0769
2023-05-01T01:53:03.831Z,545.0769
2023-05-01T01:54:06.770Z,544.4615
2023-05-01T01:55:09.858Z,545.3846
2023-05-01T01:56:12.780Z,548.6923
2023-05-01T01:57:15.569Z,548.6154
2023-05-01T01:58:18.632Z,549.3846
2023-05-01T01:59:21.503Z,549.5385
2023-05-01T02:00:24.401Z,549.7692
2023-05-01T02:01:27.362Z,551.2308
2023-05-01T02:02:30.359Z,553.6154
2023-05-01T02:03:33.405Z,552.6923
2023-05-01T02:04:36.208Z,555.0000
2023-05-01T02:05:39.102Z,553.8461
2023-05-01T02:06:42.084Z,552.7692
2023-05-01T02:07:44.984Z,554.2308
2023-05-01T02:08:48.007Z,555.1539
2023-05-01T02:09:50.891Z,553.4615
2023-05-01T02:10:53.860Z,551.8461
2023-05-01T02:11:56.821Z,552.8461
2023-05-01T02:12:59.730Z,553.4615
2023-05-01T02:14:02.832Z,553.2308
2023-05-01T02:15:05.618Z,552.3846
2023-05-01T02:16:08.579Z,551.0000
2023-05-01T02:17:11.480Z,551.2308
2023-05-01T02:18:14.453Z,549.8461
2023-05-01T02:19:17.390Z,549.6154
2023-05-01T02:20:20.448Z,548.7692
2023-05-01T02:21:23.263Z,547.2308
2023-05-01T02:22:26.202Z,547.1539
2023-05-01T02:23:29.175Z,544.6923
2023-05-01T02:24:32.095Z,545.2308
2023-05-01T02:25:35.063Z,546.8461
2023-05-01T02:26:37.992Z,548.6923
2023-05-01T02:27:40.917Z,550.4615
2023-05-01T02:28:43.859Z,549.0000
2023-05-01T02:29:46.814Z,545.9231
2023-05-01T02:30:49.744Z,547.7692
2023-05-01T02:31:52.745Z,543.8461
2023-05-01T02:32:55.654Z,541.2308
2023-05-01T02:33:58.596Z,538.6154
2023-05-01T02:35:01.517Z,538.5385
2023-05-01T02:36:04.494Z,539.1539
2023-05-01T02:37:07.404Z,537.1539
2023-05-01T02:38:10.354Z,537.2308
2023-05-01T02:39:13.277Z,535.6154
2023-05-01T02:40:16.230Z,535.3846
2023-05-01T02:41:19.204Z,537.7692
2023-05-01T02:42:22.150Z,536.0000
2023-05-01T02:43:25.061Z,538.3077
2023-05-01T02:44:28.169Z,542.0769
2023-05-01T02:45:30.951Z,538.3077
2023-05-01T02:46:33.947Z,537.0000
2023-05-01T02:47:36.848Z,536.9231
2023-05-01T02:48:39.769Z,534.3846
2023-05-01T02:49:42.710Z,533.3077
2023-05-01T02:50:45.656Z,532.6154
2023-05-01T02:51:48.611Z,533.8461
2023-05-01T02:52:51.618Z,530.1539
2023-05-01T02:53:54.487Z,532.0769
2023-05-01T02:54:57.419Z,531.3077
2023-05-01T02:56:00.360Z,532.0769
2023-05-01T02:57:03.324Z,530.5385
2023-05-01T02:58:06.278Z,529.6154
2023-05-01T02:59:09.201Z,527.9231
2023-05-01T03:00:12.131Z,528.0769
2023-05-01T03:01:15.137Z,528.0769
2023-05-01T03:02:18.011Z,529.1539
2023-05-01T03:03:21.018Z,532.9231
2023-05-01T03:04:23.962Z,534.9231
2023-05-01T03:05:26.914Z,535.0769
2023-05-01T03:06:29.826Z,534.8461
2023-05-01T03:07:32.737Z,534.7692
2023-05-01T03:08:35.687Z,528.0000
2023-05-01T03:09:38.636Z,524.7692
2023-05-01T03:10:41.552Z,525.5385
2023-05-01T03:11:44.501Z,525.7692
2023-05-01T03:12:47.481Z,526.3077
2023-05-01T03:13:50.390Z,527.5385
2023-05-01T03:14:53.324Z,528.1539
2023-05-01T03:15:56.332Z,528.4615
2023-05-01T03:16:59.288Z,526.1539
2023-05-01T03:18:02.214Z,527.2308
2023-05-01T03:19:05.093Z,527.6154
2023-05-01T03:20:08.051Z,526.1539
2023-05-01T03:21:10.979Z,526.1539
2023-05-01T03:22:13.926Z,527.0769
2023-05-01T03:23:16.878Z,526.8461
2023-05-01T03:24:19.808Z,526.3846
2023-05-01T03:25:22.741Z,525.4615
2023-05-01T03:26:25.707Z,524.0000
2023-05-01T03:27:28.676Z,524.3077
2023-05-01T03:28:31.640Z,526.5385
2023-05-01T03:29:34.522Z,527.9231
2023-05-01T03:30:37.474Z,527.6923
2023-05-01T03:31:40.440Z,527.1539
2023-05-01T03:32:43.403Z,526.9231
2023-05-01T03:33:46.302Z,527.6923
2023-05-01T03:34:49.237Z,526.6154
2023-05-01T03:35:52.191Z,526.2308
2023-05-01T03:36:55.141Z,527.7692
2023-05-01T03:37:58.078Z,527.2308
2023-05-01T03:39:01.030Z,528.7692
2023-05-01T03:40:03.922Z,531.5385
2023-05-01T03:41:06.893Z,531.2308
2023-05-01T03:42:09.817Z,529.6923
2023-05-01T03:43:12.765Z,531.6154
2023-05-01T03:44:15.703Z,532.3077
2023-05-01T03:45:18.660Z,535.5385
2023-05-01T03:46:21.682Z,533.3846
2023-05-01T03:47:24.574Z,532.4615
2023-05-01T03:48:27.455Z,533.0769
2023-05-01T03:49:30.418Z,535.6923
2023-05-01T03:50:33.401Z,536.2308
2023-05-01T03:51:36.283Z,535.6923
2023-05-01T03:52:39.221Z,535.7692
2023-05-01T03:53:42.209Z,537.9231
2023-05-01T03:54:45.125Z,542.0000
2023-05-01T03:55:48.042Z,538.8461
2023-05-01T03:56:50.979Z,538.4615
2023-05-01T03:57:53.926Z,537.3077
2023-05-01T03:58:56.892Z,538.2308
2023-05-01T03:59:59.808Z,533.6923
2023-05-01T04:01:02.749Z,528.0769
2023-05-01T04:02:05.777Z,522.7692
2023-05-01T04:03:08.737Z,523.6923
2023-05-01T04:04:11.619Z,528.3077
2023-05-01T04:05:14.586Z,529.6923
2023-05-01T04:06:17.602Z,530.6923
2023-05-01T04:07:20.622Z,526.8461
2023-05-01T04:08:23.354Z,527.5385
2023-05-01T04:09:26.307Z,528.0769
2023-05-01T04:10:29.242Z,528.5385
2023-05-01T04:11:32.165Z,528.4615
2023-05-01T04:12:35.104Z,529.9231
2023-05-01T04:13:38.049Z,529.6923
2023-05-01T04:14:41.004Z,532.0769
2023-05-01T04:15:44.130Z,534.4615
2023-05-01T04:16:46.884Z,536.3846
2023-05-01T04:17:49.853Z,537.6154
2023-05-01T04:18:52.841Z,538.4615
2023-05-01T04:19:55.920Z,539.0000
2023-05-01T04:20:58.675Z,539.5385
2023-05-01T04:22:01.742Z,542.0769
2023-05-01T04:23:04.525Z,540.9231
2023-05-01T04:24:07.634Z,540.0769
2023-05-01T04:25:10.445Z,541.5385
2023-05-01T04:26:13.358Z,540.7692
2023-05-01T04:27:16.306Z,540.0000
2023-05-01T04:28:19.262Z,544.2308
2023-05-01T04:29:22.173Z,547.5385
2023-05-01T04:30:25.121Z,547.9231
2023-05-01T04:31:28.111Z,544.9231
2023-05-01T04:32:31.080Z,542.5385
2023-05-01T04:33:33.941Z,539.3077
2023-05-01T04:34:36.893Z,534.2308
2023-05-01T04:35:39.875Z,535.3077
2023-05-01T04:36:42.780Z,533.7692
2023-05-01T04:37:45.710Z,534.1539
2023-05-01T04:38:48.780Z,535.8461
2023-05-01T04:39:51.639Z,537.0769
2023-05-01T04:40:54.541Z,537.2308
2023-05-01T04:41:57.502Z,538.7692
2023-05-01T04:43:00.427Z,537.1539
2023-05-01T04:44:03.375Z,537.0769
2023-05-01T04:45:06.330Z,539.3077
2023-05-01T04:46:09.329Z,540.9231
2023-05-01T04:47:12.650Z,545.1539
2023-05-01T04:48:15.213Z,542.6154
2023-05-01T04:49:18.199Z,541.5385
2023-05-01T04:50:21.083Z,541.6154
2023-05-01T04:51:24.040Z,539.7692
2023-05-01T04:52:26.952Z,539.0769
2023-05-01T04:53:30.037Z,540.6154
2023-05-01T04:54:32.986Z,538.0769
2023-05-01T04:55:35.925Z,537.1539
2023-05-01T04:56:38.883Z,536.6923
2023-05-01T04:57:41.712Z,537.4615
2023-05-01T04:58:44.610Z,537.9231
2023-05-01T04:59:47.595Z,536.5385
2023-05-01T05:00:50.497Z,537.2308
2023-05-01T05:01:53.481Z,539.6923
2023-05-01T05:02:56.478Z,540.8461
2023-05-01T05:03:59.467Z,540.6923
2023-05-01T05:05:02.276Z,541.0769
2023-05-01T05:06:05.291Z,539.4615
2023-05-01T05:07:08.154Z,534.4615
2023-05-01T05:08:11.099Z,533.5385
2023-05-01T05:09:14.042Z,532.8461
2023-05-01T05:10:16.983Z,534.7692
2023-05-01T05:11:19.905Z,536.3077
2023-05-01T05:12:22.957Z,536.1539
2023-05-01T05:13:25.852Z,537.4615
2023-05-01T05:14:28.745Z,538.3846
2023-05-01T05:15:31.685Z,538.6923
2023-05-01T05:16:34.679Z,538.4615
2023-05-01T05:17:37.657Z,537.0000
2023-05-01T05:18:40.512Z,536.4615
2023-05-01T05:19:43.451Z,535.4615
2023-05-01T05:20:46.411Z,535.9231
2023-05-01T05:21:49.318Z,534.0769
2023-05-01T05:22:52.283Z,533.9231
2023-05-01T05:23:55.203Z,532.5385
2023-05-01T05:24:58.190Z,535.0769
2023-05-01T05:26:01.114Z,534.4615
2023-05-01T05:27:04.073Z,532.5385
2023-05-01T05:28:07.058Z,526.6154
2023-05-01T05:29:09.964Z,528.0769
2023-05-01T05:30:12.890Z,530.0769
2023-05-01T05:31:15.834Z,530.8461
2023-05-01T05:32:18.876Z,531.7692
2023-05-01T05:33:21.726Z,529.8461
2023-05-01T05:34:24.666Z,529.3846
2023-05-01T05:35:27.617Z,530.7692
2023-05-01T05:36:30.537Z,529.5385
2023-05-01T05:37:33.481Z,527.8461
2023-05-01T05:38:36.437Z,524.8461
2023-05-01T05:39:39.390Z,523.7692
2023-05-01T05:40:42.316Z,523.6923
2023-05-01T05:41:45.276Z,523.3846
2023-05-01T05:42:48.204Z,523.5385
2023-05-01T05:43:51.168Z,520.6154
2023-05-01T05:44:54.108Z,518.6923
2023-05-01T05:45:57.080Z,521.2308
2023-05-01T05:46:59.987Z,521.2308
2023-05-01T05:48:03.043Z,523.2308
2023-05-01T05:49:05.863Z,523.6154
2023-05-01T05:50:08.843Z,525.3077
2023-05-01T05:51:11.770Z,523.9231
2023-05-01T05:52:14.716Z,521.2308
2023-05-01T05:53:17.665Z,521.5385
2023-05-01T05:54:20.609Z,521.6923
2023-05-01T05:55:23.545Z,525.0000
2023-05-01T05:56:26.503Z,526.6154
2023-05-01T05:57:29.439Z,526.5385
2023-05-01T05:58:32.379Z,526.4615
2023-05-01T05:59:35.337Z,529.3846
2023-05-01T06:00:38.263Z,530.0000
2023-05-01T06:01:41.221Z,527.7692
2023-05-01T06:02:44.268Z,526.1539
2023-05-01T06:03:47.199Z,526.2308
2023-05-01T06:04:50.103Z,525.0000
2023-05-01T06:05:56.518Z,526.0769
2023-05-01T06:06:56.081Z,524.6923
2023-05-01T06:07:58.896Z,521.6154
2023-05-01T06:09:02.070Z,523.0000
2023-05-01T06:10:04.788Z,525.1539
2023-05-01T06:11:07.849Z,525.0769
2023-05-01T06:12:10.683Z,523.6923
2023-05-01T06:13:14.697Z,525.9231
2023-05-01T06:14:16.548Z,525.6154
2023-05-01T06:15:19.511Z,523.1539
2023-05-01T06:16:22.478Z,525.6154
2023-05-01T06:17:25.408Z,527.6923
2023-05-01T06:18:28.343Z,528.6923
2023-05-01T06:19:31.292Z,530.3846
2023-05-01T06:20:34.209Z,530.7692
2023-05-01T06:21:37.166Z,529.0000
2023-05-01T06:22:40.143Z,531.2308
2023-05-01T06:23:43.055Z,532.5385
2023-05-01T06:24:46.056Z,533.6923
2023-05-01T06:25:48.938Z,534.6923
2023-05-01T06:26:51.919Z,534.2308
2023-05-01T06:27:54.831Z,533.9231
2023-05-01T06:28:57.755Z,531.8461
2023-05-01T06:30:00.742Z,533.8461
2023-05-01T06:31:03.841Z,535.6154
2023-05-01T06:32:06.619Z,539.6154
2023-05-01T06:33:09.548Z,540.6923
2023-05-01T06:34:12.486Z,540.3846
2023-05-01T06:35:15.406Z,536.0000
2023-05-01T06:36:18.360Z,535.6154
2023-05-01T06:37:21.309Z,534.9231
2023-05-01T06:38:26.887Z,534.1539
2023-05-01T06:39:27.202Z,535.6154
2023-05-01T06:40:30.263Z,534.9231
2023-05-01T06:41:33.106Z,536.0769
2023-05-01T06:42:36.180Z,536.6923
2023-05-01T06:43:38.954Z,535.0000
2023-05-01T06:44:42.036Z,534.2308
2023-05-01T06:45:44.831Z,533.7692
2023-05-01T06:46:47.802Z,534.9231
2023-05-01T06:47:50.775Z,534.9231
2023-05-01T06:48:53.664Z,534.3846
2023-05-01T06:49:56.878Z,533.2308
2023-05-01T06:50:59.918Z,534.1539
2023-05-01T06:52:02.495Z,536.4615
2023-05-01T06:53:05.429Z,536.5385
2023-05-01T06:54:08.373Z,537.8461
2023-05-01T06:55:11.602Z,539.7692
2023-05-01T06:56:14.263Z,539.3077
2023-05-01T06:57:17.266Z,539.4615
2023-05-01T06:58:23.924Z,538.6923
2023-05-01T06:59:23.078Z,538.6154
2023-05-01T07:00:26.054Z,537.2308
2023-05-01T07:01:28.989Z,537.5385
2023-05-01T07:02:31.988Z,538.0000
2023-05-01T07:03:34.954Z,539.6154
2023-05-01T07:04:37.743Z,539.3846
2023-05-01T07:05:40.698Z,539.7692
2023-05-01T07:06:43.704Z,541.7692
2023-05-01T07:07:57.808Z,542.6154
2023-05-01T07:08:49.571Z,542.6923
2023-05-01T07:09:52.502Z,541.2308
2023-05-01T07:10:55.391Z,540.2308
2023-05-01T07:11:58.331Z,540.4615
2023-05-01T07:13:01.296Z,539.4615
2023-05-01T07:14:04.225Z,538.9231
2023-05-01T07:15:07.143Z,538.6154
2023-05-01T07:16:10.179Z,537.6154
2023-05-01T07:17:13.069Z,535.4615
2023-05-01T07:18:16.003Z,535.6923
2023-05-01T07:19:18.929Z,535.6923
2023-05-01T07:20:21.901Z,533.4615
2023-05-01T07:21:24.789Z,529.9231
2023-05-01T07:22:27.735Z,533.3077
2023-05-01T07:23:30.710Z,535.3846
2023-05-01T07:24:33.614Z,535.9231
2023-05-01T07:25:36.606Z,534.1539
2023-05-01T07:26:39.576Z,533.6154
2023-05-01T07:27:42.445Z,529.6154
2023-05-01T07:28:45.519Z,525.9231
2023-05-01T07:29:48.353Z,524.3846
2023-05-01T07:30:51.342Z,525.2308
2023-05-01T07:31:54.295Z,524.0769
2023-05-01T07:32:57.211Z,525.1539
2023-05-01T07:34:00.097Z,524.4615
2023-05-01T07:35:03.072Z,526.6923
2023-05-01T07:36:05.975Z,524.2308
2023-05-01T07:37:08.936Z,522.0769
2023-05-01T07:38:11.832Z,522.4615
2023-05-01T07:39:14.841Z,523.0000
2023-05-01T07:40:17.963Z,520.5385
2023-05-01T07:41:20.665Z,520.3077
2023-05-01T07:42:23.610Z,519.2308
2023-05-01T07:43:26.559Z,517.6154
2023-05-01T07:44:29.614Z,516.0000
2023-05-01T07:45:32.470Z,516.4615
2023-05-01T07:46:35.430Z,514.9231
2023-05-01T07:47:38.422Z,511.8462
2023-05-01T07:48:41.225Z,513.6923
2023-05-01T07:49:44.201Z,512.6923
2023-05-01T07:50:47.178Z,511.4615
2023-05-01T07:51:50.120Z,512.0000
2023-05-01T07:52:53.014Z,511.3846
2023-05-01T07:53:55.972Z,511.6154
2023-05-01T07:54:58.908Z,509.4615
2023-05-01T07:56:01.895Z,505.7692
2023-05-01T07:57:04.800Z,507.0000
2023-05-01T07:58:07.817Z,508.0769
2023-05-01T07:59:10.692Z,508.7692
2023-05-01T08:00:13.654Z,509.3846
2023-05-01T08:01:16.608Z,509.0000
2023-05-01T08:02:19.625Z,506.2308
2023-05-01T08:03:22.741Z,505.7692
2023-05-01T08:04:25.490Z,507.8462
2023-05-01T08:05:28.518Z,509.0769
2023-05-01T08:06:31.428Z,508.0769
2023-05-01T08:07:34.253Z,508.0769
2023-05-01T08:08:37.256Z,509.6923
2023-05-01T08:09:40.165Z,507.5385
2023-05-01T08:10:43.116Z,506.2308
2023-05-01T08:11:46.179Z,508.3846
2023-05-01T08:12:48.997Z,509.6923
2023-05-01T08:13:51.983Z,508.9231
2023-05-01T08:14:54.891Z,508.4615
2023-05-01T08:15:57.909Z,508.0000
2023-05-01T08:17:00.802Z,508.6154
2023-05-01T08:18:03.817Z,508.0769
2023-05-01T08:19:06.698Z,507.7692
2023-05-01T08:20:09.645Z,510.3846
2023-05-01T08:21:12.623Z,512.2308
2023-05-01T08:22:15.541Z,510.7692
2023-05-01T08:23:18.655Z,510.8462
2023-05-01T08:24:21.426Z,510.0000
2023-05-01T08:25:24.386Z,510.1538
2023-05-01T08:26:27.326Z,508.8462
2023-05-01T08:27:30.290Z,509.1538
2023-05-01T08:28:33.391Z,509.9231
2023-05-01T08:29:36.186Z,509.8462
2023-05-01T08:30:39.214Z,509.0769
2023-05-01T08:31:42.096Z,510.5385
2023-05-01T08:32:45.068Z,511.2308
2023-05-01T08:33:47.961Z,511.7692
2023-05-01T08:34:50.946Z,512.7692
2023-05-01T08:35:53.866Z,512.6154
2023-05-01T08:36:56.813Z,510.9231
2023-05-01T08:37:59.749Z,511.3077
2023-05-01T08:39:02.694Z,509.6923
2023-05-01T08:40:05.660Z,509.1538
2023-05-01T08:41:08.596Z,509.6923
2023-05-01T08:42:11.539Z,509.7692
2023-05-01T08:43:14.481Z,508.3846
2023-05-01T08:44:17.429Z,507.3846
2023-05-01T08:45:20.398Z,508.1538
2023-05-01T08:46:23.405Z,508.3846
2023-05-01T08:47:26.282Z,507.2308
2023-05-01T08:48:29.205Z,508.6154
2023-05-01T08:49:32.285Z,509.4615
2023-05-01T08:50:35.148Z,508.7692
2023-05-01T08:51:38.075Z,507.1538
2023-05-01T08:52:41.012Z,506.6923
2023-05-01T08:53:44.018Z,505.0000
2023-05-01T08:54:46.998Z,503.8462
2023-05-01T08:55:49.933Z,507.1538
2023-05-01T08:56:52.871Z,508.2308
2023-05-01T08:57:55.840Z,509.9231
2023-05-01T08:58:58.767Z,506.7692
2023-05-01T09:00:01.733Z,507.4615
2023-05-01T09:01:04.673Z,507.5385
2023-05-01T09:02:07.738Z,505.6154
2023-05-01T09:03:10.630Z,505.8462
2023-05-01T09:04:13.705Z,505.6154
2023-05-01T09:05:16.483Z,504.0000
2023-05-01T09:06:19.561Z,505.6923
2023-05-01T09:07:22.363Z,505.9231
2023-05-01T09:08:25.283Z,504.6154
2023-05-01T09:09:28.231Z,499.1538
2023-05-01T09:10:32.935Z,500.2308
2023-05-01T09:11:34.100Z,498.6923
2023-05-01T09:12:37.068Z,499.5385
2023-05-01T09:13:40.053Z,499.6923
2023-05-01T09:14:42.939Z,500.6154
2023-05-01T09:15:45.964Z,502.6154
2023-05-01T09:16:48.905Z,499.8462
2023-05-01T09:17:52.060Z,498.6154
2023-05-01T09:18:54.687Z,499.9231
2023-05-01T09:19:57.880Z,499.5385
2023-05-01T09:21:00.566Z,499.7692
2023-05-01T09:22:03.510Z,500.3077
2023-05-01T09:23:06.569Z,500.3077
2023-05-01T09:24:09.505Z,498.4615
2023-05-01T09:25:12.361Z,500.5385
2023-05-01T09:26:15.294Z,499.6923
2023-05-01T09:27:18.219Z,498.7692
2023-05-01T09:28:21.208Z,498.6923
2023-05-01T09:29:24.188Z,500.6923
2023-05-01T09:30:27.022Z,501.4615
2023-05-01T09:31:30.013Z,500.8462
2023-05-01T09:32:32.905Z,498.9231
2023-05-01T09:33:35.880Z,499.6154
2023-05-01T09:34:38.792Z,499.3077
2023-05-01T09:35:41.721Z,501.1538
2023-05-01T09:36:44.730Z,502.1538
2023-05-01T09:37:48.115Z,502.9231
2023-05-01T09:38:50.551Z,503.0769
2023-05-01T09:39:53.514Z,501.2308
2023-05-01T09:40:56.624Z,499.4615
2023-05-01T09:41:59.385Z,496.3846
2023-05-01T09:43:02.308Z,495.1538
2023-05-01T09:44:05.280Z,495.8462
2023-05-01T09:45:08.200Z,497.9231
2023-05-01T09:46:11.192Z,501.6923
2023-05-01T09:47:14.122Z,500.0769
2023-05-01T09:48:17.012Z,499.8462
2023-05-01T09:49:19.957Z,498.7692
2023-05-01T09:50:22.937Z,499.6923
2023-05-01T09:51:25.835Z,498.6154
2023-05-01T09:52:28.801Z,496.6923
2023-05-01T09:53:31.707Z,496.3077
2023-05-01T09:54:34.661Z,494.0769
2023-05-01T09:55:37.659Z,494.6154
2023-05-01T09:56:40.555Z,495.1538
2023-05-01T09:57:43.477Z,496.6154
2023-05-01T09:58:46.423Z,497.3077
2023-05-01T09:59:49.505Z,499.5385
2023-05-01T10:00:52.361Z,498.3077
2023-05-01T10:01:55.365Z,498.0769
2023-05-01T10:02:58.787Z,500.0000
2023-05-01T10:04:01.232Z,500.6923
2023-05-01T10:05:04.088Z,497.8462
2023-05-01T10:06:07.158Z,494.6154
2023-05-01T10:07:09.972Z,496.0000
2023-05-01T10:08:12.900Z,497.6154
2023-05-01T10:09:15.846Z,497.7692
2023-05-01T10:10:18.848Z,498.3077
2023-05-01T10:11:21.738Z,498.4615
2023-05-01T10:12:24.695Z,497.3077
2023-05-01T10:13:27.675Z,496.4615
2023-05-01T10:14:30.592Z,496.0769
2023-05-01T10:15:33.562Z,496.9231
2023-05-01T10:16:36.578Z,496.4615
2023-05-01T10:17:39.508Z,497.0769
2023-05-01T10:18:42.398Z,497.0000
2023-05-01T10:19:45.331Z,497.7692
2023-05-01T10:20:48.318Z,498.8462
2023-05-01T10:21:51.217Z,497.5385
2023-05-01T10:22:54.372Z,496.6923
2023-05-01T10:23:57.120Z,497.0769
2023-05-01T10:25:00.069Z,494.3077
2023-05-01T10:26:04.032Z,493.3077
2023-05-01T10:27:05.991Z,490.7692
2023-05-01T10:28:08.931Z,489.9231
2023-05-01T10:29:11.867Z,489.6923
2023-05-01T10:30:14.808Z,488.6154
2023-05-01T10:31:17.812Z,488.7692
2023-05-01T10:32:20.696Z,486.9231
2023-05-01T10:33:23.860Z,489.2308
2023-05-01T10:34:28.452Z,490.6923
2023-05-01T10:35:29.579Z,490.1538
2023-05-01T10:36:32.515Z,488.3846
2023-05-01T10:37:35.429Z,488.3846
2023-05-01T10:38:38.410Z,489.0769
2023-05-01T10:39:41.354Z,489.9231
2023-05-01T10:40:44.317Z,490.0000
2023-05-01T10:41:47.242Z,491.8462
2023-05-01T10:42:50.207Z,490.4615
2023-05-01T10:43:53.116Z,491.0000
2023-05-01T10:44:56.283Z,491.3846
2023-05-01T10:45:59.076Z,494.1538
2023-05-01T10:47:01.958Z,494.1538
2023-05-01T10:48:04.952Z,492.6154
2023-05-01T10:49:07.824Z,490.9231
2023-05-01T10:50:10.762Z,489.2308
2023-05-01T10:51:13.699Z,488.7692
2023-05-01T10:52:16.731Z,490.6154
2023-05-01T10:53:19.603Z,491.3846
2023-05-01T10:54:22.521Z,489.8462
2023-05-01T10:55:25.480Z,488.3846
2023-05-01T10:56:28.462Z,490.3846
2023-05-01T10:57:31.350Z,490.1538
2023-05-01T10:58:34.271Z,490.1538
2023-05-01T10:59:37.290Z,489.9231
2023-05-01T11:00:40.140Z,490.3077
2023-05-01T11:01:43.324Z,491.1538
2023-05-01T11:02:46.082Z,491.2308
2023-05-01T11:03:48.975Z,493.0000
2023-05-01T11:04:52.031Z,493.4615
2023-05-01T11:05:54.966Z,494.3077
2023-05-01T11:06:57.829Z,492.0000
2023-05-01T11:08:00.881Z,490.0000
2023-05-01T11:09:03.677Z,490.0000
2023-05-01T11:10:06.612Z,491.6923
2023-05-01T11:11:09.545Z,492.8462
2023-05-01T11:12:12.500Z,493.6154
2023-05-01T11:13:15.419Z,493.8462
2023-05-01T11:14:18.357Z,495.7692
2023-05-01T11:15:21.297Z,498.1538
2023-05-01T11:16:24.285Z,498.8462
2023-05-01T11:17:27.198Z,498.2308
2023-05-01T11:18:30.144Z,499.1538
2023-05-01T11:19:33.130Z,499.3077
2023-05-01T11:20:36.039Z,498.3077
2023-05-01T11:21:38.975Z,496.0769
2023-05-01T11:22:41.899Z,494.8462
2023-05-01T11:23:44.818Z,497.1538
2023-05-01T11:24:47.744Z,498.8462
2023-05-01T11:25:50.771Z,498.5385
2023-05-01T11:26:53.701Z,499.2308
2023-05-01T11:27:56.716Z,499.6923
2023-05-01T11:28:59.504Z,497.2308
2023-05-01T11:30:02.472Z,495.6923
2023-05-01T11:31:05.411Z,497.8462
2023-05-01T11:32:08.451Z,498.6923
2023-05-01T11:33:11.378Z,498.2308
2023-05-01T11:34:14.202Z,497.5385
2023-05-01T11:35:17.177Z,499.0769
2023-05-01T11:36:20.112Z,498.6154
2023-05-01T11:37:23.117Z,498.0769
2023-05-01T11:38:25.973Z,498.9231
2023-05-01T11:39:28.899Z,500.2308
2023-05-01T11:40:31.860Z,496.1538
2023-05-01T11:41:34.791Z,496.8462
2023-05-01T11:42:37.788Z,497.7692
2023-05-01T11:43:40.672Z,497.0000
2023-05-01T11:44:43.609Z,497.7692
2023-05-01T11:45:46.588Z,497.6154
2023-05-01T11:46:49.545Z,497.0000
2023-05-01T11:47:52.466Z,498.9231
2023-05-01T11:48:55.365Z,499.6923
2023-05-01T11:49:58.331Z,499.0000
2023-05-01T11:51:01.257Z,499.0769
2023-05-01T11:52:04.213Z,498.6154
2023-05-01T11:53:07.128Z,500.0769
2023-05-01T11:54:10.079Z,499.9231
2023-05-01T11:55:13.044Z,500.9231
2023-05-01T11:56:25.399Z,500.6154
2023-05-01T11:57:18.903Z,498.4615
2023-05-01T11:58:21.981Z,498.9231
2023-05-01T11:59:24.760Z,500.2308
2023-05-01T12:00:27.740Z,499.3846
2023-05-01T12:01:30.674Z,498.8462
2023-05-01T12:02:33.728Z,498.3846
2023-05-01T12:03:36.560Z,497.0769
2023-05-01T12:04:39.561Z,495.9231
2023-05-01T12:05:42.487Z,497.4615
2023-05-01T12:06:45.587Z,499.0769
2023-05-01T12:07:48.286Z,500.1538
2023-05-01T12:08:51.274Z,500.8462
2023-05-01T12:09:54.337Z,501.9231
2023-05-01T12:10:57.189Z,501.3846
2023-05-01T12:12:00.097Z,498.3846
2023-05-01T12:13:03.012Z,498.5385
2023-05-01T12:14:05.930Z,497.7692
2023-05-01T12:15:08.906Z,498.0769
2023-05-01T12:16:11.840Z,501.1538
2023-05-01T12:17:14.805Z,501.0000
2023-05-01T12:18:18.076Z,502.9231
2023-05-01T12:19:21.773Z,504.9231